Latest Weather Observations for The Monument

IDQ60801

Issued at 10:02 am EST Sunday 5 July 2015 (issued every 30 minutes, with the page automatically refreshed every 10 minutes)

About weather observations | Map of weather stations | Latest weather observations for QLD | Other Formats
Station Details ID: 037034 Name: THE MONUMENT AIRPORT Lat: -21.81 Lon: 139.93 Height: 288.4 m
Data from the previous 72 hours. | See also: Recent months at The Monument
Date/Time
EST
Temp
°C
App
Temp
°C
Dew
Point
Rel
Hum
%
Delta-T
°C
Wind Press
QNH
hPa
Press
MSL
hPa
Rain
since 9 am
mm
Dir
 
Spd
km/h
Gust
km/h
Spd
kts
Gust
kts
05/10:00am 15.2 11.0 -0.9 33 6.8 S 11 13 6 7 1021.0 1020.6 0.0
05/09:30am 13.7 10.0 -0.3 38 5.9 S 9 11 5 6 1020.9 1020.5 0.0
05/09:00am 11.8 8.0 -0.7 42 5.1 SSW 9 11 5 6 1020.7 1020.3 0.0
05/08:30am 10.1 7.6 -1.0 46 4.4 SW 2 9 1 5 1020.6 1020.2 0.0
05/08:00am 8.0 5.7 -2.3 48 3.9 CALM 0 0 0 0 1020.2 1019.9 0.0
05/07:30am 6.5 2.8 -2.6 52 3.4 SW 7 9 4 5 1020.0 1019.7 0.0
05/07:00am 7.2 3.7 -1.7 53 3.4 SSW 7 9 4 5 1019.8 1019.5 0.0
05/06:30am 7.4 3.8 -2.3 50 3.6 SW 7 9 4 5 1019.5 1019.1 0.0
05/06:00am 7.2 3.6 -2.2 51 3.5 W 7 9 4 5 1019.1 1018.7 0.0
05/05:30am 7.2 3.7 -2.5 50 3.6 WSW 6 7 3 4 1018.9 1018.5 0.0
05/05:00am 6.6 3.5 -2.8 51 3.4 SSW 4 7 2 4 1018.7 1018.3 0.0
05/04:30am 6.8 3.2 -3.4 48 3.7 SSW 6 7 3 4 1018.9 1018.5 0.0
05/04:00am 8.8 5.3 -1.6 48 4.0 SSW 7 9 4 5 1018.8 1018.4 0.0
05/03:30am 9.5 5.9 -1.8 45 4.4 SSW 7 9 4 5 1018.9 1018.5 0.0
05/03:00am 10.2 6.3 -1.8 43 4.7 S 9 11 5 6 1018.8 1018.4 0.0
05/02:30am 10.7 6.4 -1.7 42 4.9 S 11 13 6 7 1019.1 1018.7 0.0
05/02:00am 11.2 6.9 -1.9 40 5.2 S 11 13 6 7 1019.5 1019.1 0.0
05/01:30am 12.0 7.3 -1.9 38 5.6 SSE 13 17 7 9 1019.7 1019.4 0.0
05/01:00am 12.5 7.8 -2.1 36 5.8 SSE 13 17 7 9 1019.7 1019.4 0.0
05/12:30am 13.4 8.7 -1.7 35 6.1 SSE 13 17 7 9 1019.7 1019.4 0.0
05/12:00am 14.0 8.9 -2.0 33 6.5 S 15 20 8 11 1019.7 1019.4 0.0
 
Date/Time
EST
Temp
°C
App
Temp
°C
Dew
Point
Rel
Hum
%
Delta-T
°C
Wind Press
QNH
hPa
Press
MSL
hPa
Rain
since 9 am
mm
Dir
 
Spd
km/h
Gust
km/h
Spd
kts
Gust
kts
04/11:30pm 14.4 9.3 -2.1 32 6.7 S 15 20 8 11 1019.6 1019.3 0.0
04/11:00pm 15.2 9.7 -1.8 31 7.0 S 17 22 9 12 1019.6 1019.3 0.0
04/10:30pm 15.9 10.1 -1.6 30 7.3 S 19 26 10 14 1019.7 1019.4 0.0
04/10:00pm 16.1 11.1 -1.5 30 7.4 S 15 20 8 11 1019.8 1019.5 0.0
04/09:30pm 16.1 11.4 -1.5 30 7.4 SSE 13 17 7 9 1019.7 1019.4 0.0
04/09:00pm 16.2 11.9 -1.4 30 7.4 S 11 15 6 8 1019.5 1019.1 0.0
04/08:30pm 16.7 12.4 -1.4 29 7.7 S 11 13 6 7 1019.3 1018.9 0.0
04/08:00pm 18.0 13.7 -1.3 27 8.3 S 11 15 6 8 1019.1 1018.7 0.0
04/07:30pm 19.0 14.0 -0.9 26 8.7 S 15 17 8 9 1018.8 1018.4 0.0
04/07:00pm 19.6 14.7 -0.4 26 8.8 S 15 19 8 10 1018.4 1018.0 0.0
04/06:30pm 20.6 16.1 -0.1 25 9.3 S 13 15 7 8 1018.1 1017.7 0.0
04/06:00pm 22.2 17.8 0.1 23 10.1 S 13 19 7 10 1017.7 1017.3 0.0
04/05:30pm 23.3 18.9 0.4 22 10.6 S 13 17 7 9 1017.3 1016.9 0.0
04/05:00pm 23.8 19.8 0.2 21 10.9 SSW 11 15 6 8 1017.2 1016.8 0.0
04/04:30pm 24.2 20.6 0.5 21 11.1 SW 9 17 5 9 1017.1 1016.7 0.0
04/04:00pm 23.8 20.5 0.2 21 10.9 SSE 7 9 4 5 1017.0 1016.6 0.0
04/03:30pm 24.0 20.0 0.4 21 11.0 WSW 11 17 6 9 1017.2 1016.8 0.0
04/03:00pm 24.4 21.2 0.7 21 11.1 SE 7 15 4 8 1017.3 1016.9 0.0
04/02:30pm 23.6 19.3 0.7 22 10.7 S 13 19 7 10 1017.5 1017.1 0.0
04/02:00pm 23.3 20.2 0.4 22 10.6 W 6 13 3 7 1018.0 1017.6 0.0
04/01:30pm 23.1 19.4 0.2 22 10.6 SE 9 24 5 13 1018.2 1017.8 0.0
04/01:00pm 22.6 18.6 0.4 23 10.2 SE 11 24 6 13 1018.6 1018.2 0.0
04/12:30pm 21.4 17.7 0.0 24 9.7 SSE 9 13 5 7 1019.1 1018.7 0.0
04/12:00pm 21.0 17.3 0.2 25 9.4 E 9 13 5 7 1019.7 1019.4 0.0
04/11:30am 19.5 15.7 -0.5 26 8.8 E 9 17 5 9 1020.2 1019.9 0.0
04/11:00am 18.6 14.2 0.2 29 8.2 ESE 13 19 7 10 1020.5 1020.1 0.0
04/10:30am 17.1 12.7 0.3 32 7.4 ESE 13 19 7 10 1020.8 1020.4 0.0
04/10:00am 15.7 11.3 0.3 35 6.7 E 13 20 7 11 1020.8 1020.4 0.0
04/09:30am 13.7 10.0 0.0 39 5.8 ESE 9 15 5 8 1020.9 1020.5 0.0
04/09:00am 11.8 7.7 -0.4 43 5.0 ESE 11 13 6 7 1020.9 1020.5 0.0
04/08:30am 8.9 5.3 -3.3 42 4.6 S 6 6 3 3 1020.9 1020.5 0.0
04/08:00am 6.7 2.9 -3.8 47 3.8 S 7 7 4 4 1020.5 1020.1 0.0
04/07:30am 4.9 2.3 -4.6 50 3.3 CALM 0 0 0 0 1020.4 1020.0 0.0
04/07:00am 5.6 3.0 -4.8 47 3.6 CALM 0 0 0 0 1020.2 1019.9 0.0
04/06:30am 4.6 2.1 -4.4 52 3.1 CALM 0 0 0 0 1019.9 1019.6 0.0
04/06:00am 5.7 3.2 -4.2 49 3.5 CALM 0 0 0 0 1019.9 1019.6 0.0
04/05:30am 5.9 3.3 -4.5 47 3.6 CALM 0 0 0 0 1019.7 1019.4 0.0
04/05:00am 6.6 4.2 -3.3 49 3.6 CALM 0 0 0 0 1019.7 1019.4 0.0
04/04:30am 5.4 2.9 -4.4 49 3.4 CALM 0 0 0 0 1019.7 1019.4 0.0
04/04:00am 6.0 2.1 -4.4 47 3.6 S 7 9 4 5 1019.7 1019.4 0.0
04/03:30am 7.0 3.3 -4.1 45 4.0 S 6 7 3 4 1019.9 1019.6 0.0
04/03:00am 8.0 4.2 -3.5 44 4.2 S 7 9 4 5 1020.1 1019.8 0.0
04/02:30am 8.3 4.2 -2.9 45 4.2 SSW 9 9 5 5 1020.4 1020.0 0.0
04/02:00am 8.6 4.9 -3.3 43 4.4 SSW 7 9 4 5 1020.7 1020.3 0.0
04/01:30am 8.8 5.1 -3.1 43 4.5 SSE 7 7 4 4 1020.8 1020.4 0.0
04/01:00am 10.4 6.4 -2.3 41 4.9 S 9 9 5 5 1020.8 1020.4 0.0
04/12:30am 11.0 7.1 -1.7 41 5.0 SSE 9 11 5 6 1020.8 1020.4 0.0
04/12:00am 11.0 6.7 -1.4 42 4.9 SSE 11 11 6 6 1021.0 1020.6 0.0
 
Date/Time
EST
Temp
°C
App
Temp
°C
Dew
Point
Rel
Hum
%
Delta-T
°C
Wind Press
QNH
hPa
Press
MSL
hPa
Rain
since 9 am
mm
Dir
 
Spd
km/h
Gust
km/h
Spd
kts
Gust
kts
03/11:30pm 10.8 6.9 -1.3 43 4.8 SE 9 11 5 6 1021.0 1020.6 0.0
03/11:00pm 11.4 7.1 -2.0 39 5.3 SE 11 13 6 7 1021.3 1020.9 0.0
03/10:30pm 12.2 8.4 -1.0 40 5.4 SSE 9 11 5 6 1021.5 1021.1 0.0
03/10:00pm 12.4 8.6 -1.1 39 5.5 SE 9 9 5 5 1021.5 1021.1 0.0
03/09:30pm 13.4 9.2 -1.0 37 6.0 SSE 11 13 6 7 1021.3 1020.9 0.0
03/09:00pm 13.9 10.1 -0.9 36 6.1 SSE 9 11 5 6 1021.1 1020.7 0.0
03/08:30pm 14.5 10.3 -1.2 34 6.5 SSE 11 13 6 7 1020.9 1020.5 0.0
03/08:00pm 15.6 11.4 -0.6 33 6.9 SSE 11 15 6 8 1020.6 1020.2 0.0
03/07:30pm 16.5 11.9 -0.7 31 7.4 SSE 13 15 7 8 1020.4 1020.0 0.0
03/07:00pm 17.6 12.7 -0.6 29 7.9 SSE 15 17 8 9 1019.9 1019.6 0.0
03/06:30pm 18.5 14.0 -0.3 28 8.3 SSE 13 19 7 10 1019.7 1019.4 0.0
03/06:00pm 19.8 14.6 0.3 27 8.8 SSE 17 24 9 13 1019.4 1019.0 0.0
03/05:30pm 20.9 15.2 0.7 26 9.3 SE 20 26 11 14 1019.3 1018.9 0.0
03/05:00pm 21.3 15.3 1.0 26 9.4 SE 22 30 12 16 1019.3 1018.9 0.0
03/04:30pm 21.7 16.2 1.9 27 9.3 SE 20 30 11 16 1019.2 1018.8 0.0
03/04:00pm 21.9 16.7 2.6 28 9.2 SE 19 26 10 14 1019.2 1018.8 0.0
03/03:30pm 21.7 16.5 2.4 28 9.2 SSE 19 30 10 16 1019.4 1019.0 0.0
03/03:00pm 21.6 17.3 3.3 30 8.8 SSE 15 22 8 12 1019.5 1019.1 0.0
03/02:30pm 20.8 16.2 3.5 32 8.4 SE 17 30 9 16 1019.7 1019.4 0.0
03/02:00pm 20.6 16.2 4.6 35 7.9 SE 17 30 9 16 1020.1 1019.8 0.0
03/01:30pm 20.2 16.1 4.3 35 7.8 SE 15 22 8 12 1020.9 1020.5 0.0
03/01:00pm 19.7 15.3 4.6 37 7.4 ESE 17 26 9 14 1021.6 1021.2 0.0
03/12:30pm 19.1 15.2 5.2 40 6.9 ESE 15 24 8 13 1022.2 1021.8 0.0
03/12:00pm 19.0 14.8 5.8 42 6.6 ESE 17 26 9 14 1022.8 1022.5 0.0
03/11:30am 17.9 13.1 5.5 44 6.1 ESE 20 33 11 18 1023.2 1022.9 0.0
03/11:00am 17.4 12.6 5.7 46 5.7 ESE 20 28 11 15 1023.5 1023.2 0.0
03/10:30am 16.1 10.8 5.1 48 5.3 ESE 22 32 12 17 1023.7 1023.4 0.0
03/10:00am 15.6 10.3 5.2 50 5.0 ESE 22 33 12 18 1024.0 1023.6 0.0
03/09:30am 13.8 8.3 4.1 52 4.5 ESE 22 33 12 18 1024.0 1023.6 0.0
03/09:00am 12.5 7.8 2.9 52 4.3 SE 17 26 9 14 1023.7 1023.4 0.0
03/08:30am 10.4 7.2 0.7 51 4.0 S 7 9 4 5 1023.6 1023.3 0.0
03/08:00am 8.7 5.6 0.2 55 3.4 S 6 9 3 5 1023.4 1023.1 0.0
03/07:30am 7.7 3.6 -0.3 57 3.2 S 11 11 6 6 1023.0 1022.7 0.0
03/07:00am 7.7 4.0 -0.3 57 3.2 S 9 11 5 6 1022.6 1022.3 0.0
03/06:30am 8.1 4.0 -0.1 56 3.3 S 11 11 6 6 1022.5 1022.1 0.0
03/06:00am 8.6 4.5 0.1 55 3.4 S 11 13 6 7 1022.3 1021.9 0.0
03/05:30am 8.9 4.8 0.1 54 3.6 S 11 13 6 7 1022.3 1021.9 0.0
03/05:00am 9.4 5.4 0.3 53 3.7 S 11 13 6 7 1022.3 1021.9 0.0
03/04:30am 9.9 6.3 0.8 53 3.8 S 9 13 5 7 1022.3 1021.9 0.0
03/04:00am 10.5 6.6 1.1 52 3.9 S 11 13 6 7 1022.3 1021.9 0.0
03/03:30am 11.0 7.2 1.5 52 4.1 S 11 13 6 7 1022.4 1022.0 0.0
03/03:00am 11.7 8.3 1.6 50 4.3 S 9 13 5 7 1022.6 1022.3 0.0
03/02:30am 12.1 8.4 2.3 51 4.3 SSE 11 13 6 7 1022.7 1022.4 0.0
03/02:00am 12.7 8.6 2.3 49 4.6 SSE 13 17 7 9 1022.8 1022.5 0.0
03/01:30am 13.5 9.1 2.7 48 4.8 SSE 15 20 8 11 1022.9 1022.6 0.0
03/01:00am 13.8 9.1 3.0 48 4.9 SSE 17 22 9 12 1023.1 1022.8 0.0
03/12:30am 14.2 9.5 3.4 48 5.0 SSE 17 22 9 12 1023.1 1022.8 0.0
03/12:00am 14.6 9.6 3.7 48 5.0 SSE 19 28 10 15 1023.3 1023.0 0.0
 
Date/Time
EST
Temp
°C
App
Temp
°C
Dew
Point
Rel
Hum
%
Delta-T
°C
Wind Press
QNH
hPa
Press
MSL
hPa
Rain
since 9 am
mm
Dir
 
Spd
km/h
Gust
km/h
Spd
kts
Gust
kts
02/11:30pm 15.3 10.3 4.4 48 5.2 SSE 20 30 11 16 1023.5 1023.2 0.0
02/11:00pm 14.8 11.0 3.9 48 5.1 S 13 17 7 9 1023.7 1023.4 0.0
02/10:30pm 15.3 11.5 4.1 47 5.3 SSE 13 17 7 9 1023.5 1023.2 0.0
02/10:00pm 15.6 11.8 4.0 46 5.4 S 13 17 7 9 1023.7 1023.4 0.0
02/09:30pm 15.7 12.3 3.8 45 5.6 S 11 15 6 8 1023.6 1023.3 0.0
02/09:00pm 16.3 12.5 4.0 44 5.8 S 13 17 7 9 1023.5 1023.2 0.0
02/08:30pm 16.9 13.6 4.3 43 6.0 S 11 15 6 8 1023.3 1023.0 0.0
02/08:00pm 17.5 14.1 4.1 41 6.4 S 11 17 6 9 1023.3 1023.0 0.0
02/07:30pm 18.1 14.6 3.6 38 6.9 S 11 15 6 8 1023.1 1022.8 0.0
02/07:00pm 18.9 14.6 3.5 36 7.3 S 15 20 8 11 1022.7 1022.4 0.0
02/06:30pm 19.6 14.4 3.7 35 7.7 S 20 26 11 14 1022.4 1022.0 0.0
02/06:00pm 20.5 15.0 4.1 34 8.0 S 22 32 12 17 1022.2 1021.8 0.0
02/05:30pm 21.3 15.5 4.4 33 8.3 S 24 35 13 19 1022.1 1021.7 0.0
02/05:00pm 21.9 16.5 4.5 32 8.6 S 22 30 12 16 1022.0 1021.6 0.0
02/04:30pm 22.5 17.2 5.0 32 8.8 S 22 28 12 15 1021.8 1021.4 0.0
02/04:00pm 22.8 18.1 6.1 34 8.6 SSW 20 30 11 16 1021.7 1021.3 0.0
02/03:30pm 22.9 18.0 5.3 32 8.9 S 20 30 11 16 1021.9 1021.5 0.0
02/03:00pm 22.9 18.0 5.3 32 8.9 SSE 20 28 11 15 1022.1 1021.7 0.0
02/02:30pm 22.7 18.5 5.6 33 8.7 SSW 17 30 9 16 1022.4 1022.0 0.0
02/02:00pm 23.3 19.2 6.1 33 8.8 SSW 17 28 9 15 1022.8 1022.5 0.0
02/01:30pm 21.7 17.2 6.0 36 8.0 S 19 32 10 17 1023.3 1023.0 0.0
02/01:00pm 21.8 17.4 6.5 37 7.9 SSE 19 30 10 16 1024.0 1023.6 0.0
02/12:30pm 21.1 16.7 6.6 39 7.5 SE 19 30 10 16 1024.6 1024.2 0.0
02/12:00pm 21.2 16.9 7.1 40 7.3 SSE 19 26 10 14 1025.2 1024.8 0.0
02/11:30am 20.3 17.0 8.0 45 6.5 SE 15 22 8 12 1025.6 1025.3 0.0
02/11:00am 19.5 16.2 8.2 48 5.9 SE 15 17 8 9 1026.0 1025.7 0.0
02/10:30am 18.2 14.9 7.9 51 5.3 SSE 15 22 8 12 1026.3 1026.0 0.0

Other Formats:

Comma delimited format used in spreadsheet applications
http://www.bom.gov.au/fwo/IDQ60801/IDQ60801.94336.axf

JavaScript Object Notation format (JSON) in row-major order
http://www.bom.gov.au/fwo/IDQ60801/IDQ60801.94336.json